sensor_id;sensor_type;location;lat;lon;timestamp;P1;durP1;ratioP1;P2;durP2;ratioP2
16282;SDS011;8249;48.708;9.030;2023-05-07T00:01:26;4.37;;;4.27;;
16282;SDS011;8249;48.708;9.030;2023-05-07T00:03:53;4.80;;;4.70;;
16282;SDS011;8249;48.708;9.030;2023-05-07T00:06:20;4.83;;;4.63;;
16282;SDS011;8249;48.708;9.030;2023-05-07T00:08:49;4.13;;;4.03;;
16282;SDS011;8249;48.708;9.030;2023-05-07T00:11:16;4.40;;;4.30;;
16282;SDS011;8249;48.708;9.030;2023-05-07T00:13:42;4.60;;;4.50;;
16282;SDS011;8249;48.708;9.030;2023-05-07T00:16:09;4.80;;;4.70;;
16282;SDS011;8249;48.708;9.030;2023-05-07T00:18:36;4.00;;;3.90;;
16282;SDS011;8249;48.708;9.030;2023-05-07T00:21:03;4.53;;;4.43;;
16282;SDS011;8249;48.708;9.030;2023-05-07T00:23:30;4.30;;;4.20;;
16282;SDS011;8249;48.708;9.030;2023-05-07T00:25:58;4.23;;;4.13;;
16282;SDS011;8249;48.708;9.030;2023-05-07T00:28:25;4.50;;;4.40;;
16282;SDS011;8249;48.708;9.030;2023-05-07T00:30:52;4.13;;;4.03;;
16282;SDS011;8249;48.708;9.030;2023-05-07T00:33:19;4.37;;;4.27;;
16282;SDS011;8249;48.708;9.030;2023-05-07T00:35:46;5.27;;;5.07;;
16282;SDS011;8249;48.708;9.030;2023-05-07T00:38:13;4.00;;;3.90;;
16282;SDS011;8249;48.708;9.030;2023-05-07T00:40:40;4.63;;;4.53;;
16282;SDS011;8249;48.708;9.030;2023-05-07T00:43:08;4.30;;;4.20;;
16282;SDS011;8249;48.708;9.030;2023-05-07T00:45:35;4.47;;;4.37;;
16282;SDS011;8249;48.708;9.030;2023-05-07T00:48:02;4.37;;;4.27;;
16282;SDS011;8249;48.708;9.030;2023-05-07T00:50:29;5.07;;;4.93;;
16282;SDS011;8249;48.708;9.030;2023-05-07T00:52:57;4.93;;;4.83;;
16282;SDS011;8249;48.708;9.030;2023-05-07T00:55:25;4.93;;;4.83;;
16282;SDS011;8249;48.708;9.030;2023-05-07T00:57:52;6.10;;;5.70;;
16282;SDS011;8249;48.708;9.030;2023-05-07T01:00:21;5.33;;;5.23;;
16282;SDS011;8249;48.708;9.030;2023-05-07T01:02:49;5.13;;;5.00;;
16282;SDS011;8249;48.708;9.030;2023-05-07T01:05:17;4.97;;;4.83;;
16282;SDS011;8249;48.708;9.030;2023-05-07T01:07:45;4.37;;;4.27;;
16282;SDS011;8249;48.708;9.030;2023-05-07T01:10:13;5.03;;;4.93;;
16282;SDS011;8249;48.708;9.030;2023-05-07T01:12:41;6.07;;;5.77;;
16282;SDS011;8249;48.708;9.030;2023-05-07T01:15:08;5.47;;;5.30;;
16282;SDS011;8249;48.708;9.030;2023-05-07T01:17:39;5.70;;;5.50;;
16282;SDS011;8249;48.708;9.030;2023-05-07T01:20:13;5.57;;;5.37;;
16282;SDS011;8249;48.708;9.030;2023-05-07T01:22:44;5.40;;;5.30;;
16282;SDS011;8249;48.708;9.030;2023-05-07T01:25:12;5.90;;;5.73;;
16282;SDS011;8249;48.708;9.030;2023-05-07T01:27:44;5.37;;;5.17;;
16282;SDS011;8249;48.708;9.030;2023-05-07T01:30:12;5.83;;;5.73;;
16282;SDS011;8249;48.708;9.030;2023-05-07T01:32:40;5.73;;;5.53;;
16282;SDS011;8249;48.708;9.030;2023-05-07T01:35:11;6.23;;;6.03;;
16282;SDS011;8249;48.708;9.030;2023-05-07T01:37:45;6.10;;;5.90;;
16282;SDS011;8249;48.708;9.030;2023-05-07T01:40:13;5.20;;;5.10;;
16282;SDS011;8249;48.708;9.030;2023-05-07T01:42:41;5.80;;;5.60;;
16282;SDS011;8249;48.708;9.030;2023-05-07T01:45:10;6.50;;;6.20;;
16282;SDS011;8249;48.708;9.030;2023-05-07T01:47:37;6.07;;;5.87;;
16282;SDS011;8249;48.708;9.030;2023-05-07T01:50:05;6.63;;;6.43;;
16282;SDS011;8249;48.708;9.030;2023-05-07T01:52:33;5.97;;;5.77;;
16282;SDS011;8249;48.708;9.030;2023-05-07T01:55:02;5.63;;;5.53;;
16282;SDS011;8249;48.708;9.030;2023-05-07T01:57:30;6.23;;;6.03;;
16282;SDS011;8249;48.708;9.030;2023-05-07T01:59:57;5.30;;;5.20;;
16282;SDS011;8249;48.708;9.030;2023-05-07T02:02:24;6.90;;;6.70;;
16282;SDS011;8249;48.708;9.030;2023-05-07T02:04:53;6.70;;;6.50;;
16282;SDS011;8249;48.708;9.030;2023-05-07T02:07:21;7.00;;;6.50;;
16282;SDS011;8249;48.708;9.030;2023-05-07T02:09:48;7.20;;;6.90;;
16282;SDS011;8249;48.708;9.030;2023-05-07T02:12:16;6.80;;;6.60;;
16282;SDS011;8249;48.708;9.030;2023-05-07T02:14:43;6.03;;;5.90;;
16282;SDS011;8249;48.708;9.030;2023-05-07T02:17:10;6.50;;;6.30;;
16282;SDS011;8249;48.708;9.030;2023-05-07T02:19:37;6.10;;;5.97;;
16282;SDS011;8249;48.708;9.030;2023-05-07T02:22:04;6.43;;;6.23;;
16282;SDS011;8249;48.708;9.030;2023-05-07T02:24:31;6.43;;;6.23;;
16282;SDS011;8249;48.708;9.030;2023-05-07T02:26:58;7.20;;;7.00;;
16282;SDS011;8249;48.708;9.030;2023-05-07T02:29:26;8.33;;;7.73;;
16282;SDS011;8249;48.708;9.030;2023-05-07T02:31:53;7.20;;;6.90;;
16282;SDS011;8249;48.708;9.030;2023-05-07T02:34:20;7.00;;;6.73;;
16282;SDS011;8249;48.708;9.030;2023-05-07T02:36:47;7.23;;;6.93;;
16282;SDS011;8249;48.708;9.030;2023-05-07T02:39:18;7.27;;;7.07;;
16282;SDS011;8249;48.708;9.030;2023-05-07T02:41:45;7.57;;;7.27;;
16282;SDS011;8249;48.708;9.030;2023-05-07T02:44:12;8.73;;;8.43;;
16282;SDS011;8249;48.708;9.030;2023-05-07T02:46:41;7.13;;;6.93;;
16282;SDS011;8249;48.708;9.030;2023-05-07T02:49:10;6.40;;;6.20;;
16282;SDS011;8249;48.708;9.030;2023-05-07T02:51:37;6.03;;;5.63;;
16282;SDS011;8249;48.708;9.030;2023-05-07T02:54:10;5.80;;;5.63;;
16282;SDS011;8249;48.708;9.030;2023-05-07T02:56:37;6.90;;;6.30;;
16282;SDS011;8249;48.708;9.030;2023-05-07T02:59:04;6.87;;;6.63;;
16282;SDS011;8249;48.708;9.030;2023-05-07T03:01:36;6.20;;;6.00;;
16282;SDS011;8249;48.708;9.030;2023-05-07T03:04:07;6.07;;;5.90;;
16282;SDS011;8249;48.708;9.030;2023-05-07T03:06:34;5.97;;;5.80;;
16282;SDS011;8249;48.708;9.030;2023-05-07T03:09:01;7.43;;;7.03;;
16282;SDS011;8249;48.708;9.030;2023-05-07T03:11:28;6.13;;;5.97;;
16282;SDS011;8249;48.708;9.030;2023-05-07T03:13:56;6.40;;;6.20;;
16282;SDS011;8249;48.708;9.030;2023-05-07T03:16:23;7.57;;;7.30;;
16282;SDS011;8249;48.708;9.030;2023-05-07T03:18:49;6.70;;;6.50;;
16282;SDS011;8249;48.708;9.030;2023-05-07T03:21:18;7.50;;;7.30;;
16282;SDS011;8249;48.708;9.030;2023-05-07T03:23:45;7.83;;;7.60;;
16282;SDS011;8249;48.708;9.030;2023-05-07T03:26:12;7.57;;;7.27;;
16282;SDS011;8249;48.708;9.030;2023-05-07T03:28:39;8.80;;;8.50;;
16282;SDS011;8249;48.708;9.030;2023-05-07T03:31:10;7.30;;;7.10;;
16282;SDS011;8249;48.708;9.030;2023-05-07T03:33:38;6.60;;;6.40;;
16282;SDS011;8249;48.708;9.030;2023-05-07T03:36:17;7.30;;;7.10;;
16282;SDS011;8249;48.708;9.030;2023-05-07T03:38:44;8.03;;;7.83;;
16282;SDS011;8249;48.708;9.030;2023-05-07T03:41:11;7.17;;;6.97;;
16282;SDS011;8249;48.708;9.030;2023-05-07T03:43:38;7.33;;;6.83;;
16282;SDS011;8249;48.708;9.030;2023-05-07T03:46:08;7.53;;;7.27;;
16282;SDS011;8249;48.708;9.030;2023-05-07T03:48:35;8.83;;;8.33;;
16282;SDS011;8249;48.708;9.030;2023-05-07T03:51:03;8.17;;;7.87;;
16282;SDS011;8249;48.708;9.030;2023-05-07T03:53:33;8.00;;;7.67;;
16282;SDS011;8249;48.708;9.030;2023-05-07T03:56:00;7.37;;;7.17;;
16282;SDS011;8249;48.708;9.030;2023-05-07T03:58:30;7.00;;;6.80;;
16282;SDS011;8249;48.708;9.030;2023-05-07T04:01:01;6.87;;;6.50;;
16282;SDS011;8249;48.708;9.030;2023-05-07T04:03:29;7.30;;;7.10;;
16282;SDS011;8249;48.708;9.030;2023-05-07T04:05:58;7.80;;;7.50;;
16282;SDS011;8249;48.708;9.030;2023-05-07T04:08:25;7.00;;;6.80;;
16282;SDS011;8249;48.708;9.030;2023-05-07T04:10:58;7.07;;;6.87;;
16282;SDS011;8249;48.708;9.030;2023-05-07T04:13:29;7.20;;;7.00;;
16282;SDS011;8249;48.708;9.030;2023-05-07T04:15:57;7.90;;;7.60;;
16282;SDS011;8249;48.708;9.030;2023-05-07T04:18:25;8.00;;;7.80;;
16282;SDS011;8249;48.708;9.030;2023-05-07T04:20:52;8.63;;;8.33;;
16282;SDS011;8249;48.708;9.030;2023-05-07T04:23:20;7.67;;;7.40;;
16282;SDS011;8249;48.708;9.030;2023-05-07T04:25:47;7.90;;;7.70;;
16282;SDS011;8249;48.708;9.030;2023-05-07T04:28:25;8.03;;;7.63;;
16282;SDS011;8249;48.708;9.030;2023-05-07T04:30:52;7.03;;;6.83;;
16282;SDS011;8249;48.708;9.030;2023-05-07T04:33:21;7.43;;;7.23;;
16282;SDS011;8249;48.708;9.030;2023-05-07T04:35:49;7.40;;;7.13;;
16282;SDS011;8249;48.708;9.030;2023-05-07T04:38:16;7.50;;;7.27;;
16282;SDS011;8249;48.708;9.030;2023-05-07T04:40:44;6.43;;;6.23;;
16282;SDS011;8249;48.708;9.030;2023-05-07T04:43:15;7.63;;;7.23;;
16282;SDS011;8249;48.708;9.030;2023-05-07T04:45:49;7.43;;;7.23;;
16282;SDS011;8249;48.708;9.030;2023-05-07T04:48:16;7.27;;;7.07;;
16282;SDS011;8249;48.708;9.030;2023-05-07T04:50:44;7.83;;;7.53;;
16282;SDS011;8249;48.708;9.030;2023-05-07T04:53:14;7.40;;;7.10;;
16282;SDS011;8249;48.708;9.030;2023-05-07T04:55:42;6.90;;;6.60;;
16282;SDS011;8249;48.708;9.030;2023-05-07T04:58:09;6.07;;;5.87;;
16282;SDS011;8249;48.708;9.030;2023-05-07T05:00:37;6.83;;;6.53;;
16282;SDS011;8249;48.708;9.030;2023-05-07T05:03:07;6.23;;;6.03;;
16282;SDS011;8249;48.708;9.030;2023-05-07T05:05:36;6.10;;;5.90;;
16282;SDS011;8249;48.708;9.030;2023-05-07T05:08:03;6.20;;;6.00;;
16282;SDS011;8249;48.708;9.030;2023-05-07T05:10:31;5.33;;;5.23;;
16282;SDS011;8249;48.708;9.030;2023-05-07T05:12:58;6.43;;;6.23;;
16282;SDS011;8249;48.708;9.030;2023-05-07T05:15:26;5.83;;;5.60;;
16282;SDS011;8249;48.708;9.030;2023-05-07T05:17:53;6.00;;;5.80;;
16282;SDS011;8249;48.708;9.030;2023-05-07T05:20:21;6.70;;;6.50;;
16282;SDS011;8249;48.708;9.030;2023-05-07T05:22:48;6.13;;;5.83;;
16282;SDS011;8249;48.708;9.030;2023-05-07T05:25:15;6.00;;;5.80;;
16282;SDS011;8249;48.708;9.030;2023-05-07T05:27:42;5.73;;;5.57;;
16282;SDS011;8249;48.708;9.030;2023-05-07T05:30:09;5.93;;;5.73;;
16282;SDS011;8249;48.708;9.030;2023-05-07T05:32:38;5.07;;;4.97;;
16282;SDS011;8249;48.708;9.030;2023-05-07T05:35:06;5.07;;;4.97;;
16282;SDS011;8249;48.708;9.030;2023-05-07T05:37:35;4.70;;;4.60;;
16282;SDS011;8249;48.708;9.030;2023-05-07T05:40:05;4.27;;;4.03;;
16282;SDS011;8249;48.708;9.030;2023-05-07T05:42:33;3.00;;;3.00;;
16282;SDS011;8249;48.708;9.030;2023-05-07T05:45:00;3.00;;;3.00;;
16282;SDS011;8249;48.708;9.030;2023-05-07T05:47:29;3.20;;;3.10;;
16282;SDS011;8249;48.708;9.030;2023-05-07T05:49:56;2.97;;;2.90;;
16282;SDS011;8249;48.708;9.030;2023-05-07T05:52:24;2.83;;;2.83;;
16282;SDS011;8249;48.708;9.030;2023-05-07T05:54:54;4.07;;;3.87;;
16282;SDS011;8249;48.708;9.030;2023-05-07T05:57:21;3.47;;;3.37;;
16282;SDS011;8249;48.708;9.030;2023-05-07T05:59:48;3.27;;;3.17;;
16282;SDS011;8249;48.708;9.030;2023-05-07T06:02:16;3.47;;;3.27;;
16282;SDS011;8249;48.708;9.030;2023-05-07T06:04:43;3.00;;;2.90;;
16282;SDS011;8249;48.708;9.030;2023-05-07T06:07:14;2.97;;;2.87;;
16282;SDS011;8249;48.708;9.030;2023-05-07T06:09:41;3.40;;;3.30;;
16282;SDS011;8249;48.708;9.030;2023-05-07T06:12:10;2.97;;;2.87;;
16282;SDS011;8249;48.708;9.030;2023-05-07T06:14:37;3.00;;;2.90;;
16282;SDS011;8249;48.708;9.030;2023-05-07T06:17:04;2.90;;;2.80;;
16282;SDS011;8249;48.708;9.030;2023-05-07T06:19:31;2.80;;;2.70;;
16282;SDS011;8249;48.708;9.030;2023-05-07T06:21:58;3.27;;;3.17;;
16282;SDS011;8249;48.708;9.030;2023-05-07T06:24:28;2.93;;;2.93;;
16282;SDS011;8249;48.708;9.030;2023-05-07T06:26:55;3.03;;;2.93;;
16282;SDS011;8249;48.708;9.030;2023-05-07T06:29:25;3.13;;;2.97;;
16282;SDS011;8249;48.708;9.030;2023-05-07T06:31:53;3.47;;;3.27;;
16282;SDS011;8249;48.708;9.030;2023-05-07T06:34:21;3.23;;;3.13;;
16282;SDS011;8249;48.708;9.030;2023-05-07T06:36:48;3.00;;;2.90;;
16282;SDS011;8249;48.708;9.030;2023-05-07T06:39:34;3.03;;;2.93;;
16282;SDS011;8249;48.708;9.030;2023-05-07T06:42:01;3.37;;;3.23;;
16282;SDS011;8249;48.708;9.030;2023-05-07T06:44:32;3.30;;;3.20;;
16282;SDS011;8249;48.708;9.030;2023-05-07T06:47:08;3.00;;;2.90;;
16282;SDS011;8249;48.708;9.030;2023-05-07T06:49:38;3.00;;;2.90;;
16282;SDS011;8249;48.708;9.030;2023-05-07T06:52:04;2.43;;;2.40;;
16282;SDS011;8249;48.708;9.030;2023-05-07T06:54:31;2.83;;;2.73;;
16282;SDS011;8249;48.708;9.030;2023-05-07T06:56:59;3.00;;;2.90;;
16282;SDS011;8249;48.708;9.030;2023-05-07T06:59:27;3.23;;;3.13;;
16282;SDS011;8249;48.708;9.030;2023-05-07T07:01:55;3.17;;;3.07;;
16282;SDS011;8249;48.708;9.030;2023-05-07T07:04:22;3.20;;;3.13;;
16282;SDS011;8249;48.708;9.030;2023-05-07T07:06:57;3.50;;;2.83;;
16282;SDS011;8249;48.708;9.030;2023-05-07T07:09:24;3.37;;;3.27;;
16282;SDS011;8249;48.708;9.030;2023-05-07T07:11:53;2.53;;;2.50;;
16282;SDS011;8249;48.708;9.030;2023-05-07T07:14:20;2.85;;;2.75;;
16282;SDS011;8249;48.708;9.030;2023-05-07T07:16:50;2.90;;;2.80;;
16282;SDS011;8249;48.708;9.030;2023-05-07T07:19:20;3.10;;;2.90;;
16282;SDS011;8249;48.708;9.030;2023-05-07T07:21:49;2.83;;;2.73;;
16282;SDS011;8249;48.708;9.030;2023-05-07T07:24:16;3.10;;;3.00;;
16282;SDS011;8249;48.708;9.030;2023-05-07T07:26:48;4.03;;;3.83;;
16282;SDS011;8249;48.708;9.030;2023-05-07T07:29:15;2.93;;;2.83;;
16282;SDS011;8249;48.708;9.030;2023-05-07T07:31:44;2.58;;;2.53;;
16282;SDS011;8249;48.708;9.030;2023-05-07T07:34:11;3.30;;;3.20;;
16282;SDS011;8249;48.708;9.030;2023-05-07T07:36:39;3.22;;;3.03;;
16282;SDS011;8249;48.708;9.030;2023-05-07T07:39:07;2.85;;;2.75;;
16282;SDS011;8249;48.708;9.030;2023-05-07T07:41:35;3.05;;;2.85;;
16282;SDS011;8249;48.708;9.030;2023-05-07T07:44:03;3.05;;;2.95;;
16282;SDS011;8249;48.708;9.030;2023-05-07T07:46:35;3.35;;;3.25;;
16282;SDS011;8249;48.708;9.030;2023-05-07T07:49:02;2.92;;;2.92;;
16282;SDS011;8249;48.708;9.030;2023-05-07T07:51:29;4.30;;;2.63;;
16282;SDS011;8249;48.708;9.030;2023-05-07T07:53:59;2.55;;;2.45;;
16282;SDS011;8249;48.708;9.030;2023-05-07T07:56:28;2.75;;;2.65;;
16282;SDS011;8249;48.708;9.030;2023-05-07T07:58:55;3.00;;;2.90;;
16282;SDS011;8249;48.708;9.030;2023-05-07T08:01:22;2.72;;;2.63;;
16282;SDS011;8249;48.708;9.030;2023-05-07T08:03:49;3.08;;;2.97;;
16282;SDS011;8249;48.708;9.030;2023-05-07T08:06:16;2.63;;;2.53;;
16282;SDS011;8249;48.708;9.030;2023-05-07T08:08:43;7.05;;;3.45;;
16282;SDS011;8249;48.708;9.030;2023-05-07T08:11:11;6.18;;;3.20;;
16282;SDS011;8249;48.708;9.030;2023-05-07T08:13:39;2.45;;;2.45;;
16282;SDS011;8249;48.708;9.030;2023-05-07T08:16:06;3.05;;;2.95;;
16282;SDS011;8249;48.708;9.030;2023-05-07T08:18:34;2.83;;;2.72;;
16282;SDS011;8249;48.708;9.030;2023-05-07T08:21:02;3.17;;;3.03;;
16282;SDS011;8249;48.708;9.030;2023-05-07T08:23:30;2.72;;;2.70;;
16282;SDS011;8249;48.708;9.030;2023-05-07T08:25:59;2.60;;;2.50;;
16282;SDS011;8249;48.708;9.030;2023-05-07T08:28:29;2.90;;;2.78;;
16282;SDS011;8249;48.708;9.030;2023-05-07T08:30:56;2.22;;;2.22;;
16282;SDS011;8249;48.708;9.030;2023-05-07T08:33:26;3.17;;;3.08;;
16282;SDS011;8249;48.708;9.030;2023-05-07T08:35:53;2.67;;;2.67;;
16282;SDS011;8249;48.708;9.030;2023-05-07T08:38:20;2.10;;;2.10;;
16282;SDS011;8249;48.708;9.030;2023-05-07T08:40:47;2.58;;;2.47;;
16282;SDS011;8249;48.708;9.030;2023-05-07T08:43:17;2.60;;;2.50;;
16282;SDS011;8249;48.708;9.030;2023-05-07T08:45:47;2.90;;;2.80;;
16282;SDS011;8249;48.708;9.030;2023-05-07T08:48:19;2.72;;;2.70;;
16282;SDS011;8249;48.708;9.030;2023-05-07T08:51:18;2.30;;;2.30;;
16282;SDS011;8249;48.708;9.030;2023-05-07T08:53:47;3.25;;;2.55;;
16282;SDS011;8249;48.708;9.030;2023-05-07T08:56:21;4.82;;;2.53;;
16282;SDS011;8249;48.708;9.030;2023-05-07T08:58:50;2.80;;;2.70;;
16282;SDS011;8249;48.708;9.030;2023-05-07T09:01:22;2.50;;;2.40;;
16282;SDS011;8249;48.708;9.030;2023-05-07T09:03:51;2.42;;;2.42;;
16282;SDS011;8249;48.708;9.030;2023-05-07T09:06:20;2.35;;;2.35;;
16282;SDS011;8249;48.708;9.030;2023-05-07T09:08:51;2.50;;;2.40;;
16282;SDS011;8249;48.708;9.030;2023-05-07T09:11:19;2.20;;;2.20;;
16282;SDS011;8249;48.708;9.030;2023-05-07T09:13:48;2.63;;;2.53;;
16282;SDS011;8249;48.708;9.030;2023-05-07T09:16:15;2.83;;;2.72;;
16282;SDS011;8249;48.708;9.030;2023-05-07T09:18:46;2.53;;;2.53;;
16282;SDS011;8249;48.708;9.030;2023-05-07T09:21:14;2.70;;;2.60;;
16282;SDS011;8249;48.708;9.030;2023-05-07T09:23:43;2.58;;;2.47;;
16282;SDS011;8249;48.708;9.030;2023-05-07T09:26:11;2.72;;;2.50;;
16282;SDS011;8249;48.708;9.030;2023-05-07T09:28:40;2.28;;;2.20;;
16282;SDS011;8249;48.708;9.030;2023-05-07T09:31:10;1.83;;;1.83;;
16282;SDS011;8249;48.708;9.030;2023-05-07T09:33:38;2.17;;;2.08;;
16282;SDS011;8249;48.708;9.030;2023-05-07T09:36:09;1.80;;;1.70;;
16282;SDS011;8249;48.708;9.030;2023-05-07T09:38:38;2.20;;;2.10;;
16282;SDS011;8249;48.708;9.030;2023-05-07T09:41:07;2.00;;;2.00;;
16282;SDS011;8249;48.708;9.030;2023-05-07T09:43:42;2.17;;;2.08;;
16282;SDS011;8249;48.708;9.030;2023-05-07T09:46:12;1.88;;;1.88;;
16282;SDS011;8249;48.708;9.030;2023-05-07T09:48:45;1.65;;;1.65;;
16282;SDS011;8249;48.708;9.030;2023-05-07T09:51:21;2.03;;;2.03;;
16282;SDS011;8249;48.708;9.030;2023-05-07T09:53:52;2.22;;;2.03;;
16282;SDS011;8249;48.708;9.030;2023-05-07T09:56:21;2.72;;;2.22;;
16282;SDS011;8249;48.708;9.030;2023-05-07T09:58:49;1.80;;;1.70;;
16282;SDS011;8249;48.708;9.030;2023-05-07T10:01:20;3.00;;;2.72;;
16282;SDS011;8249;48.708;9.030;2023-05-07T10:03:49;2.00;;;1.90;;
16282;SDS011;8249;48.708;9.030;2023-05-07T10:06:19;2.03;;;1.95;;
16282;SDS011;8249;48.708;9.030;2023-05-07T10:08:46;1.75;;;1.75;;
16282;SDS011;8249;48.708;9.030;2023-05-07T10:11:15;2.05;;;1.95;;
16282;SDS011;8249;48.708;9.030;2023-05-07T10:13:44;2.50;;;2.03;;
16282;SDS011;8249;48.708;9.030;2023-05-07T10:16:14;2.42;;;2.33;;
16282;SDS011;8249;48.708;9.030;2023-05-07T10:18:45;2.42;;;2.30;;
16282;SDS011;8249;48.708;9.030;2023-05-07T10:21:19;1.90;;;1.80;;
16282;SDS011;8249;48.708;9.030;2023-05-07T10:23:53;1.63;;;1.63;;
16282;SDS011;8249;48.708;9.030;2023-05-07T10:26:27;2.13;;;2.03;;
16282;SDS011;8249;48.708;9.030;2023-05-07T10:28:57;2.15;;;2.00;;
16282;SDS011;8249;48.708;9.030;2023-05-07T10:34:19;2.40;;;2.30;;
16282;SDS011;8249;48.708;9.030;2023-05-07T10:36:50;2.00;;;2.00;;
16282;SDS011;8249;48.708;9.030;2023-05-07T10:39:19;2.00;;;2.00;;
16282;SDS011;8249;48.708;9.030;2023-05-07T10:41:48;2.70;;;2.60;;
16282;SDS011;8249;48.708;9.030;2023-05-07T10:44:24;2.40;;;2.30;;
16282;SDS011;8249;48.708;9.030;2023-05-07T10:47:04;1.95;;;1.95;;
16282;SDS011;8249;48.708;9.030;2023-05-07T10:49:33;1.80;;;1.80;;
16282;SDS011;8249;48.708;9.030;2023-05-07T10:52:16;2.10;;;2.10;;
16282;SDS011;8249;48.708;9.030;2023-05-07T10:55:21;1.83;;;1.73;;
16282;SDS011;8249;48.708;9.030;2023-05-07T10:58:23;1.83;;;1.83;;
16282;SDS011;8249;48.708;9.030;2023-05-07T11:00:56;2.10;;;2.00;;
16282;SDS011;8249;48.708;9.030;2023-05-07T11:03:29;1.65;;;1.65;;
16282;SDS011;8249;48.708;9.030;2023-05-07T11:06:10;2.25;;;1.80;;
16282;SDS011;8249;48.708;9.030;2023-05-07T11:08:55;2.33;;;2.13;;
16282;SDS011;8249;48.708;9.030;2023-05-07T11:11:45;2.28;;;2.28;;
16282;SDS011;8249;48.708;9.030;2023-05-07T11:14:42;2.20;;;2.10;;
16282;SDS011;8249;48.708;9.030;2023-05-07T11:17:32;1.95;;;1.95;;
16282;SDS011;8249;48.708;9.030;2023-05-07T11:20:04;2.65;;;2.55;;
16282;SDS011;8249;48.708;9.030;2023-05-07T11:22:48;2.00;;;2.00;;
16282;SDS011;8249;48.708;9.030;2023-05-07T11:25:38;2.22;;;2.13;;
16282;SDS011;8249;48.708;9.030;2023-05-07T11:28:15;1.90;;;1.90;;
16282;SDS011;8249;48.708;9.030;2023-05-07T11:30:49;2.53;;;2.42;;
16282;SDS011;8249;48.708;9.030;2023-05-07T11:33:18;2.00;;;1.90;;
16282;SDS011;8249;48.708;9.030;2023-05-07T11:35:48;2.47;;;2.30;;
16282;SDS011;8249;48.708;9.030;2023-05-07T11:38:17;1.95;;;1.95;;
16282;SDS011;8249;48.708;9.030;2023-05-07T11:40:50;2.20;;;2.10;;
16282;SDS011;8249;48.708;9.030;2023-05-07T11:43:17;2.10;;;2.00;;
16282;SDS011;8249;48.708;9.030;2023-05-07T11:45:44;2.38;;;1.88;;
16282;SDS011;8249;48.708;9.030;2023-05-07T11:48:12;1.95;;;1.92;;
16282;SDS011;8249;48.708;9.030;2023-05-07T11:50:49;1.70;;;1.70;;
16282;SDS011;8249;48.708;9.030;2023-05-07T11:53:27;2.15;;;2.05;;
16282;SDS011;8249;48.708;9.030;2023-05-07T11:56:07;1.85;;;1.85;;
16282;SDS011;8249;48.708;9.030;2023-05-07T11:58:34;1.60;;;1.60;;
16282;SDS011;8249;48.708;9.030;2023-05-07T12:01:01;2.20;;;2.10;;
16282;SDS011;8249;48.708;9.030;2023-05-07T12:03:28;2.20;;;2.10;;
16282;SDS011;8249;48.708;9.030;2023-05-07T12:05:55;1.85;;;1.85;;
16282;SDS011;8249;48.708;9.030;2023-05-07T12:08:22;1.50;;;1.50;;
16282;SDS011;8249;48.708;9.030;2023-05-07T12:10:50;2.10;;;2.03;;
16282;SDS011;8249;48.708;9.030;2023-05-07T12:13:23;2.43;;;2.20;;
16282;SDS011;8249;48.708;9.030;2023-05-07T12:15:51;1.90;;;1.90;;
16282;SDS011;8249;48.708;9.030;2023-05-07T12:18:18;1.80;;;1.80;;
16282;SDS011;8249;48.708;9.030;2023-05-07T12:20:48;2.10;;;2.00;;
16282;SDS011;8249;48.708;9.030;2023-05-07T12:23:17;2.43;;;2.23;;
16282;SDS011;8249;48.708;9.030;2023-05-07T12:25:44;2.20;;;2.07;;
16282;SDS011;8249;48.708;9.030;2023-05-07T12:28:13;6.00;;;2.83;;
16282;SDS011;8249;48.708;9.030;2023-05-07T12:30:43;2.53;;;2.33;;
16282;SDS011;8249;48.708;9.030;2023-05-07T12:33:13;3.20;;;2.90;;
16282;SDS011;8249;48.708;9.030;2023-05-07T12:35:43;3.90;;;3.03;;
16282;SDS011;8249;48.708;9.030;2023-05-07T12:38:11;3.30;;;3.20;;
16282;SDS011;8249;48.708;9.030;2023-05-07T12:40:39;2.60;;;2.60;;
16282;SDS011;8249;48.708;9.030;2023-05-07T12:43:06;2.97;;;2.87;;
16282;SDS011;8249;48.708;9.030;2023-05-07T12:45:36;3.27;;;3.17;;
16282;SDS011;8249;48.708;9.030;2023-05-07T12:48:06;2.47;;;2.47;;
16282;SDS011;8249;48.708;9.030;2023-05-07T12:50:35;3.17;;;3.00;;
16282;SDS011;8249;48.708;9.030;2023-05-07T12:53:03;2.83;;;2.73;;
16282;SDS011;8249;48.708;9.030;2023-05-07T12:55:31;3.00;;;3.00;;
16282;SDS011;8249;48.708;9.030;2023-05-07T12:58:00;2.97;;;2.87;;
16282;SDS011;8249;48.708;9.030;2023-05-07T13:00:37;2.93;;;2.73;;
16282;SDS011;8249;48.708;9.030;2023-05-07T13:03:06;3.13;;;2.93;;
16282;SDS011;8249;48.708;9.030;2023-05-07T13:05:33;3.83;;;3.73;;
16282;SDS011;8249;48.708;9.030;2023-05-07T13:08:00;4.30;;;4.03;;
16282;SDS011;8249;48.708;9.030;2023-05-07T13:10:28;4.90;;;4.70;;
16282;SDS011;8249;48.708;9.030;2023-05-07T13:12:55;5.03;;;4.60;;
16282;SDS011;8249;48.708;9.030;2023-05-07T13:15:22;3.77;;;3.67;;
16282;SDS011;8249;48.708;9.030;2023-05-07T13:17:49;4.57;;;4.47;;
16282;SDS011;8249;48.708;9.030;2023-05-07T13:20:17;4.83;;;4.53;;
16282;SDS011;8249;48.708;9.030;2023-05-07T13:22:44;3.33;;;3.23;;
16282;SDS011;8249;48.708;9.030;2023-05-07T13:25:11;3.80;;;3.70;;
16282;SDS011;8249;48.708;9.030;2023-05-07T13:27:39;4.67;;;4.47;;
16282;SDS011;8249;48.708;9.030;2023-05-07T13:30:06;6.10;;;5.80;;
16282;SDS011;8249;48.708;9.030;2023-05-07T13:32:34;6.07;;;5.87;;
16282;SDS011;8249;48.708;9.030;2023-05-07T13:35:01;5.57;;;5.27;;
16282;SDS011;8249;48.708;9.030;2023-05-07T13:37:29;5.07;;;4.97;;
16282;SDS011;8249;48.708;9.030;2023-05-07T13:39:56;5.03;;;4.93;;
16282;SDS011;8249;48.708;9.030;2023-05-07T13:42:23;4.33;;;4.23;;
16282;SDS011;8249;48.708;9.030;2023-05-07T13:44:50;4.87;;;4.57;;
16282;SDS011;8249;48.708;9.030;2023-05-07T13:47:17;5.03;;;4.83;;
16282;SDS011;8249;48.708;9.030;2023-05-07T13:49:44;5.50;;;5.10;;
16282;SDS011;8249;48.708;9.030;2023-05-07T13:52:14;4.97;;;4.77;;
16282;SDS011;8249;48.708;9.030;2023-05-07T13:54:43;4.73;;;4.60;;
16282;SDS011;8249;48.708;9.030;2023-05-07T13:57:10;4.80;;;4.70;;
16282;SDS011;8249;48.708;9.030;2023-05-07T13:59:37;5.63;;;5.43;;
16282;SDS011;8249;48.708;9.030;2023-05-07T14:02:04;4.80;;;4.70;;
16282;SDS011;8249;48.708;9.030;2023-05-07T14:04:31;6.37;;;6.17;;
16282;SDS011;8249;48.708;9.030;2023-05-07T14:06:58;5.63;;;5.43;;
16282;SDS011;8249;48.708;9.030;2023-05-07T14:09:25;6.03;;;5.83;;
16282;SDS011;8249;48.708;9.030;2023-05-07T14:11:54;5.37;;;5.17;;
16282;SDS011;8249;48.708;9.030;2023-05-07T14:14:20;5.97;;;5.77;;
16282;SDS011;8249;48.708;9.030;2023-05-07T14:16:47;6.47;;;6.27;;
16282;SDS011;8249;48.708;9.030;2023-05-07T14:19:14;6.17;;;5.97;;
16282;SDS011;8249;48.708;9.030;2023-05-07T14:21:42;6.13;;;5.93;;
16282;SDS011;8249;48.708;9.030;2023-05-07T14:24:09;5.33;;;5.13;;
16282;SDS011;8249;48.708;9.030;2023-05-07T14:26:36;6.87;;;6.53;;
16282;SDS011;8249;48.708;9.030;2023-05-07T14:29:04;5.07;;;4.97;;
16282;SDS011;8249;48.708;9.030;2023-05-07T14:31:31;5.33;;;5.13;;
16282;SDS011;8249;48.708;9.030;2023-05-07T14:33:59;5.20;;;5.03;;
16282;SDS011;8249;48.708;9.030;2023-05-07T14:36:25;4.80;;;4.70;;
16282;SDS011;8249;48.708;9.030;2023-05-07T14:38:52;3.80;;;3.70;;
16282;SDS011;8249;48.708;9.030;2023-05-07T14:41:19;4.80;;;4.70;;
16282;SDS011;8249;48.708;9.030;2023-05-07T14:43:47;4.50;;;4.40;;
16282;SDS011;8249;48.708;9.030;2023-05-07T14:46:17;4.87;;;4.53;;
16282;SDS011;8249;48.708;9.030;2023-05-07T14:48:44;4.50;;;4.40;;
16282;SDS011;8249;48.708;9.030;2023-05-07T14:51:12;4.17;;;4.07;;
16282;SDS011;8249;48.708;9.030;2023-05-07T14:53:40;4.13;;;4.03;;
16282;SDS011;8249;48.708;9.030;2023-05-07T14:56:07;4.13;;;4.03;;
16282;SDS011;8249;48.708;9.030;2023-05-07T14:58:34;4.30;;;4.20;;
16282;SDS011;8249;48.708;9.030;2023-05-07T15:01:02;5.27;;;5.17;;
16282;SDS011;8249;48.708;9.030;2023-05-07T15:03:30;4.47;;;4.37;;
16282;SDS011;8249;48.708;9.030;2023-05-07T15:05:57;3.77;;;3.67;;
16282;SDS011;8249;48.708;9.030;2023-05-07T15:08:25;3.97;;;3.87;;
16282;SDS011;8249;48.708;9.030;2023-05-07T15:10:53;5.00;;;4.70;;
16282;SDS011;8249;48.708;9.030;2023-05-07T15:13:20;3.40;;;3.30;;
16282;SDS011;8249;48.708;9.030;2023-05-07T15:15:47;3.60;;;3.50;;